Annandale, Pennsylvania
Current Conditions -  °F | °C
As of 9:15 AM on Monday 26 Jan 2015 (Local Time) from KFKL Reporting Station
Overcast Overcast  
Wind Chill:   Ceiling: 1100
Heat Index: 18°   Visibility: 1mi
Dew Point: 14°   Wind: 9mph
Humidity: 86%   Direction: 50°NE
Pressure: 29.75"   Gusts: NA
Location:  41.1142°N, 79.9031°W
Report Text: KFKL 261415Z AUTO 05008KT 1SM BKN011 OVC014 M08/M10 A2975 RMK AO1
Loading
Personal Weather Stations






























Interactive Weather Map New forecast layout! Learn more

10-Day Weather Forecast

Advertisements
Track Severe Weather on mobile